createdAt,value
2018-09-28T00:00:12.276Z,10.22
2018-09-28T00:02:41.323Z,10.20
2018-09-28T00:05:10.412Z,10.21
2018-09-28T00:07:39.493Z,10.23
2018-09-28T00:10:08.767Z,10.24
2018-09-28T00:12:38.052Z,10.25
2018-09-28T00:15:07.136Z,10.26
2018-09-28T00:17:36.424Z,10.23
2018-09-28T00:20:05.671Z,10.21
2018-09-28T00:22:35.690Z,10.19
2018-09-28T00:25:05.394Z,10.18
2018-09-28T00:27:34.456Z,10.19
2018-09-28T00:30:03.657Z,10.18
2018-09-28T00:32:32.656Z,10.16
2018-09-28T00:35:01.723Z,10.14
2018-09-28T00:37:30.751Z,10.12
2018-09-28T00:39:59.876Z,10.08
2018-09-28T00:42:28.985Z,10.05
2018-09-28T00:44:58.747Z,10.02
2018-09-28T00:47:27.829Z,10.02
2018-09-28T00:49:57.041Z,10.03
2018-09-28T00:52:26.133Z,10.07
2018-09-28T00:54:55.172Z,10.07
2018-09-28T00:57:24.241Z,10.07
2018-09-28T00:59:53.313Z,10.07
2018-09-28T01:02:23.304Z,10.07
2018-09-28T01:04:52.468Z,10.09
2018-09-28T01:07:22.480Z,10.09
2018-09-28T01:09:51.867Z,10.09
2018-09-28T01:12:20.875Z,10.06
2018-09-28T01:14:49.951Z,10.05
2018-09-28T01:17:19.185Z,10.04
2018-09-28T01:19:48.213Z,10.04
2018-09-28T01:22:17.523Z,10.05
2018-09-28T01:24:46.609Z,9.99
2018-09-28T01:27:15.755Z,9.92
2018-09-28T01:29:45.414Z,9.86
2018-09-28T01:32:14.397Z,9.79
2018-09-28T01:34:43.532Z,9.70
2018-09-28T01:37:13.426Z,9.69
2018-09-28T01:39:42.632Z,9.69
2018-09-28T01:42:11.823Z,9.69
2018-09-28T01:44:41.593Z,9.65
2018-09-28T01:47:11.631Z,9.60
2018-09-28T01:49:40.612Z,9.58
2018-09-28T01:52:09.902Z,9.57
2018-09-28T01:54:40.708Z,9.59
2018-09-28T01:57:09.850Z,9.60
2018-09-28T01:59:38.919Z,9.60
2018-09-28T02:02:07.960Z,9.62
2018-09-28T02:04:36.968Z,9.65
2018-09-28T02:07:06.060Z,9.69
2018-09-28T02:09:35.150Z,9.75
2018-09-28T02:12:04.273Z,9.81
2018-09-28T02:14:33.441Z,9.87
2018-09-28T02:17:02.506Z,9.84
2018-09-28T02:19:31.538Z,9.77
2018-09-28T02:22:00.618Z,9.70
2018-09-28T02:24:30.303Z,9.65
2018-09-28T02:27:00.056Z,9.64
2018-09-28T02:29:29.112Z,9.66
2018-09-28T02:31:58.748Z,9.67
2018-09-28T02:34:28.426Z,9.65
2018-09-28T02:36:57.423Z,9.61
2018-09-28T02:39:26.455Z,9.58
2018-09-28T02:41:55.434Z,9.56
2018-09-28T02:44:24.430Z,9.52
2018-09-28T02:46:53.803Z,9.45
2018-09-28T02:49:23.235Z,9.44
2018-09-28T02:51:52.554Z,9.46
2018-09-28T02:54:21.897Z,9.50
2018-09-28T02:56:51.147Z,9.53
2018-09-28T02:59:21.388Z,9.55
2018-09-28T03:01:50.552Z,9.57
2018-09-28T03:04:19.667Z,9.57
2018-09-28T03:06:48.677Z,9.60
2018-09-28T03:09:17.750Z,9.61
2018-09-28T03:11:46.811Z,9.60
2018-09-28T03:14:15.896Z,9.60
2018-09-28T03:16:45.442Z,9.61
2018-09-28T03:19:14.600Z,9.63
2018-09-28T03:21:43.700Z,9.62
2018-09-28T03:24:13.960Z,9.59
2018-09-28T03:26:43.019Z,9.58
2018-09-28T03:29:12.096Z,9.58
2018-09-28T03:31:41.295Z,9.58
2018-09-28T03:34:10.315Z,9.54
2018-09-28T03:36:39.511Z,9.53
2018-09-28T03:39:09.114Z,9.50
2018-09-28T03:41:38.149Z,9.43
2018-09-28T03:44:07.413Z,9.35
2018-09-28T03:46:36.735Z,9.31
2018-09-28T03:49:05.932Z,9.30
2018-09-28T03:51:34.979Z,9.23
2018-09-28T03:54:04.019Z,9.17
2018-09-28T03:56:33.048Z,9.14
2018-09-28T03:59:02.719Z,9.16
2018-09-28T04:01:31.861Z,9.21
2018-09-28T04:04:02.044Z,9.21
2018-09-28T04:06:31.031Z,9.18
2018-09-28T04:09:00.029Z,9.12
2018-09-28T04:11:29.062Z,9.09
2018-09-28T04:13:58.045Z,9.07
2018-09-28T04:16:27.042Z,9.03
2018-09-28T04:18:56.063Z,9.02
2018-09-28T04:21:25.121Z,9.01
2018-09-28T04:23:54.189Z,8.94
2018-09-28T04:26:23.214Z,8.94
2018-09-28T04:28:52.248Z,8.93
2018-09-28T04:31:21.341Z,8.94
2018-09-28T04:33:50.400Z,8.99
2018-09-28T04:36:19.371Z,9.03
2018-09-28T04:38:48.432Z,9.08
2018-09-28T04:41:17.485Z,9.17
2018-09-28T04:43:46.556Z,9.20
2018-09-28T04:46:15.611Z,9.21
2018-09-28T04:48:44.708Z,9.25
2018-09-28T04:51:13.724Z,9.33
2018-09-28T04:53:42.716Z,9.35
2018-09-28T04:56:12.041Z,9.36
2018-09-28T04:58:41.088Z,9.38
2018-09-28T05:01:10.161Z,9.41
2018-09-28T05:03:39.434Z,9.47
2018-09-28T05:06:08.553Z,9.56
2018-09-28T05:08:37.574Z,9.63
2018-09-28T05:11:06.647Z,9.69
2018-09-28T05:13:35.717Z,9.74
2018-09-28T05:16:04.822Z,9.81
2018-09-28T05:18:33.903Z,9.89
2018-09-28T05:21:02.976Z,9.98
2018-09-28T05:23:32.173Z,10.03
2018-09-28T05:26:01.224Z,10.07
2018-09-28T05:28:30.284Z,10.09
2018-09-28T05:30:59.459Z,10.11
2018-09-28T05:33:28.851Z,10.15
2018-09-28T05:35:57.836Z,10.18
2018-09-28T05:38:27.216Z,10.23
2018-09-28T05:40:56.264Z,10.28
2018-09-28T05:43:25.337Z,10.34
2018-09-28T05:45:54.378Z,10.36
2018-09-28T05:48:23.432Z,10.37
2018-09-28T05:50:52.460Z,10.37
2018-09-28T05:53:21.521Z,10.35
2018-09-28T05:55:50.511Z,10.34
2018-09-28T05:58:24.652Z,10.36
2018-09-28T06:00:58.841Z,10.38
2018-09-28T06:04:10.036Z,10.41
2018-09-28T06:06:43.825Z,10.43
2018-09-28T06:09:14.005Z,10.46
2018-09-28T06:11:51.550Z,10.46
2018-09-28T06:14:24.347Z,10.45
2018-09-28T06:16:57.621Z,10.44
2018-09-28T06:19:33.981Z,10.41
2018-09-28T06:24:51.325Z,10.39
2018-09-28T06:27:20.336Z,10.41
2018-09-28T06:29:49.348Z,10.41
2018-09-28T06:32:18.425Z,10.42
2018-09-28T06:34:48.631Z,10.45
2018-09-28T06:37:17.664Z,10.46
2018-09-28T06:39:46.712Z,10.48
2018-09-28T06:42:15.780Z,10.50
2018-09-28T06:44:45.723Z,10.52
2018-09-28T06:47:14.684Z,10.56
2018-09-28T06:49:43.690Z,10.57
2018-09-28T06:52:12.845Z,10.59
2018-09-28T06:54:41.846Z,10.62
2018-09-28T06:57:10.939Z,10.67
2018-09-28T06:59:42.248Z,10.71
2018-09-28T07:02:14.677Z,10.75
2018-09-28T07:04:44.024Z,10.80
2018-09-28T07:07:13.060Z,10.89
2018-09-28T07:09:42.066Z,10.99
2018-09-28T07:12:11.157Z,11.08
2018-09-28T07:14:40.432Z,11.19
2018-09-28T07:17:09.833Z,11.29
2018-09-28T07:19:39.129Z,11.36
2018-09-28T07:22:10.017Z,11.44
2018-09-28T07:24:39.299Z,11.52
2018-09-28T07:27:09.240Z,11.59
2018-09-28T07:29:38.592Z,11.69
2018-09-28T07:32:08.694Z,11.77
2018-09-28T07:34:38.798Z,11.86
2018-09-28T07:37:10.657Z,11.92
2018-09-28T07:39:40.040Z,12.00
2018-09-28T07:42:09.410Z,12.09
2018-09-28T07:44:38.461Z,12.16
2018-09-28T07:47:11.050Z,12.20
2018-09-28T07:49:41.540Z,12.25
2018-09-28T07:52:13.138Z,12.32
2018-09-28T07:54:43.750Z,12.40
2018-09-28T07:57:14.792Z,12.45
2018-09-28T08:02:18.622Z,12.59
2018-09-28T08:04:48.955Z,12.64
2018-09-28T08:07:18.083Z,12.69
2018-09-28T08:09:47.205Z,12.77
2018-09-28T08:12:19.012Z,12.83
2018-09-28T08:14:48.695Z,12.86
2018-09-28T08:17:19.475Z,12.87
2018-09-28T08:19:50.406Z,12.89
2018-09-28T08:22:20.611Z,12.92
2018-09-28T08:25:12.703Z,12.97
2018-09-28T08:30:36.568Z,13.00
2018-09-28T08:33:05.645Z,13.03
2018-09-28T08:35:35.371Z,13.05
2018-09-28T08:38:04.406Z,13.05
2018-09-28T08:40:33.833Z,13.04
2018-09-28T08:43:03.396Z,13.06
2018-09-28T08:45:32.615Z,13.08
2018-09-28T08:48:01.926Z,13.12
2018-09-28T08:50:41.000Z,13.11
2018-09-28T08:53:11.343Z,13.11
2018-09-28T08:55:40.842Z,13.13
2018-09-28T08:58:14.325Z,13.16
2018-09-28T09:00:43.521Z,13.17
2018-09-28T09:03:12.693Z,13.20
2018-09-28T09:05:42.710Z,13.20
2018-09-28T09:08:12.622Z,13.20
2018-09-28T09:10:41.908Z,13.21
2018-09-28T09:13:11.093Z,13.23
2018-09-28T09:15:40.277Z,13.24
2018-09-28T09:18:09.748Z,13.26
2018-09-28T09:20:39.024Z,13.25
2018-09-28T09:23:08.349Z,13.24
2018-09-28T09:25:37.405Z,13.23
2018-09-28T09:28:06.752Z,13.24
2018-09-28T09:30:36.896Z,13.24
2018-09-28T09:33:05.958Z,13.24
2018-09-28T09:35:35.049Z,13.25
2018-09-28T09:38:04.453Z,13.25
2018-09-28T09:40:33.671Z,13.26
2018-09-28T09:43:02.804Z,13.27
2018-09-28T09:45:32.138Z,13.27
2018-09-28T09:48:02.168Z,13.28
2018-09-28T09:50:31.412Z,13.32
2018-09-28T09:53:00.741Z,13.34
2018-09-28T09:55:30.100Z,13.36
2018-09-28T09:57:59.810Z,13.43
2018-09-28T10:00:33.995Z,13.49
2018-09-28T10:03:07.166Z,13.53
2018-09-28T10:05:36.293Z,13.55
2018-09-28T10:08:05.638Z,13.57
2018-09-28T10:10:34.871Z,13.59
2018-09-28T10:13:04.005Z,13.64
2018-09-28T10:15:34.167Z,13.65
2018-09-28T10:18:03.255Z,13.68
2018-09-28T10:20:32.345Z,13.67
2018-09-28T10:23:02.028Z,13.70
2018-09-28T10:25:31.224Z,13.72
2018-09-28T10:28:01.747Z,13.73
2018-09-28T10:30:30.788Z,13.79
2018-09-28T10:32:59.926Z,13.86
2018-09-28T10:35:29.088Z,13.93
2018-09-28T10:37:59.120Z,13.97
2018-09-28T10:40:28.328Z,14.00
2018-09-28T10:45:54.798Z,14.02
2018-09-28T10:48:24.739Z,13.99
2018-09-28T10:50:54.667Z,13.97
2018-09-28T10:53:23.936Z,13.96
2018-09-28T10:55:52.970Z,13.98
2018-09-28T10:58:22.234Z,14.01
2018-09-28T11:00:52.879Z,14.10
2018-09-28T11:03:23.490Z,14.23
2018-09-28T11:06:00.787Z,14.32
2018-09-28T11:08:30.725Z,14.44
2018-09-28T11:11:00.493Z,14.51
2018-09-28T11:13:29.797Z,14.59
2018-09-28T11:15:59.043Z,14.68
2018-09-28T11:18:29.674Z,14.81
2018-09-28T11:20:59.327Z,14.87
2018-09-28T11:23:29.612Z,14.89
2018-09-28T11:26:00.812Z,14.89
2018-09-28T11:28:30.559Z,14.87
2018-09-28T11:30:59.654Z,14.87
2018-09-28T11:33:28.741Z,14.85
2018-09-28T11:35:58.166Z,14.79
2018-09-28T11:38:28.280Z,14.73
2018-09-28T11:40:57.454Z,14.71
2018-09-28T11:43:28.075Z,14.68
2018-09-28T11:45:57.438Z,14.62
2018-09-28T11:48:27.650Z,14.54
2018-09-28T11:50:58.903Z,14.48
2018-09-28T11:53:32.963Z,14.44
2018-09-28T11:56:02.349Z,14.41
2018-09-28T11:58:31.365Z,14.42
2018-09-28T12:01:01.372Z,14.42
2018-09-28T12:03:32.281Z,14.44
2018-09-28T12:06:01.457Z,14.43
2018-09-28T12:08:31.686Z,14.49
2018-09-28T12:11:01.796Z,14.57
2018-09-28T12:13:31.206Z,14.64
2018-09-28T12:16:01.831Z,14.65
2018-09-28T12:18:31.308Z,14.62
2018-09-28T12:21:01.293Z,14.60
2018-09-28T12:23:30.361Z,14.60
2018-09-28T12:26:01.549Z,14.66
2018-09-28T12:28:30.682Z,14.74
2018-09-28T12:31:00.790Z,14.77
2018-09-28T12:33:30.033Z,14.80
2018-09-28T12:35:59.250Z,14.88
2018-09-28T12:38:29.452Z,14.91
2018-09-28T12:40:58.580Z,14.92
2018-09-28T12:43:35.029Z,14.94
2018-09-28T12:45:57.682Z,14.98
2018-09-28T12:48:27.996Z,15.01
2018-09-28T12:50:57.066Z,15.04
2018-09-28T12:53:26.884Z,15.10
2018-09-28T12:55:56.485Z,15.15
2018-09-28T12:58:25.634Z,15.18
2018-09-28T13:00:55.668Z,15.19
2018-09-28T13:03:24.721Z,15.21
2018-09-28T13:05:53.908Z,15.28
2018-09-28T13:08:23.230Z,15.30
2018-09-28T13:10:54.111Z,15.30
2018-09-28T13:13:24.285Z,15.34
2018-09-28T13:15:53.378Z,15.38
2018-09-28T13:18:27.081Z,15.43
2018-09-28T13:20:58.291Z,15.45
2018-09-28T13:23:27.421Z,15.47
2018-09-28T13:25:56.497Z,15.52
2018-09-28T13:28:25.815Z,15.55
2018-09-28T13:30:55.459Z,15.59
2018-09-28T13:33:26.302Z,15.60
2018-09-28T13:35:55.439Z,15.59
2018-09-28T13:38:25.174Z,15.58
2018-09-28T13:40:54.470Z,15.55
2018-09-28T13:43:23.590Z,15.55
2018-09-28T13:45:52.812Z,15.59
2018-09-28T13:48:22.256Z,15.63
2018-09-28T13:50:52.189Z,15.67
2018-09-28T13:53:49.574Z,15.68
2018-09-28T13:56:19.643Z,15.65
2018-09-28T13:58:49.498Z,15.61
2018-09-28T14:01:19.282Z,15.59
2018-09-28T14:03:48.395Z,15.66
2018-09-28T14:06:17.499Z,15.74
2018-09-28T14:08:46.888Z,15.77
2018-09-28T14:11:16.018Z,15.77
2018-09-28T14:13:45.124Z,15.65
2018-09-28T14:16:14.326Z,15.60
2018-09-28T14:18:43.914Z,15.53
2018-09-28T14:21:13.009Z,15.48
2018-09-28T14:23:42.138Z,15.45
2018-09-28T14:26:11.246Z,15.43
2018-09-28T14:28:40.408Z,15.43
2018-09-28T14:31:10.190Z,15.44
2018-09-28T14:33:40.109Z,15.43
2018-09-28T14:36:09.408Z,15.49
2018-09-28T14:38:38.836Z,15.52
2018-09-28T14:41:09.192Z,15.53
2018-09-28T14:43:38.665Z,15.56
2018-09-28T14:46:07.922Z,15.55
2018-09-28T14:48:39.009Z,15.52
2018-09-28T14:51:08.266Z,15.55
2018-09-28T14:53:42.800Z,15.52
2018-09-28T14:56:29.484Z,15.55
2018-09-28T14:59:06.510Z,15.49
2018-09-28T15:01:42.571Z,15.51
2018-09-28T15:04:11.796Z,15.51
2018-09-28T15:06:42.268Z,15.50
2018-09-28T15:09:18.363Z,15.50
2018-09-28T15:11:47.671Z,15.54
2018-09-28T15:14:17.742Z,15.55
2018-09-28T15:16:47.170Z,15.51
2018-09-28T15:19:16.395Z,15.57
2018-09-28T15:21:45.417Z,15.58
2018-09-28T15:24:14.774Z,15.52
2018-09-28T15:26:44.073Z,15.53
2018-09-28T15:29:13.554Z,15.55
2018-09-28T15:31:44.001Z,15.55
2018-09-28T15:34:13.303Z,15.60
2018-09-28T15:36:42.533Z,15.65
2018-09-28T15:39:13.355Z,15.60
2018-09-28T15:41:43.911Z,15.60
2018-09-28T15:44:13.094Z,15.57
2018-09-28T15:46:42.211Z,15.57
2018-09-28T15:49:11.262Z,15.53
2018-09-28T15:51:40.428Z,15.49
2018-09-28T15:54:09.511Z,15.47
2018-09-28T15:56:38.791Z,15.49
2018-09-28T15:59:15.467Z,15.47
2018-09-28T16:01:44.788Z,15.40
2018-09-28T16:04:13.979Z,15.47
2018-09-28T16:06:43.079Z,15.47
2018-09-28T16:09:12.091Z,15.47
2018-09-28T16:11:41.107Z,15.46
2018-09-28T16:14:10.780Z,15.44
2018-09-28T16:16:39.922Z,15.39
2018-09-28T16:19:09.027Z,15.41
2018-09-28T16:21:38.258Z,15.34
2018-09-28T16:24:07.430Z,15.34
2018-09-28T16:26:36.943Z,15.32
2018-09-28T16:29:06.807Z,15.30
2018-09-28T16:31:35.845Z,15.29
2018-09-28T16:34:06.448Z,15.27
2018-09-28T16:36:35.780Z,15.24
2018-09-28T16:39:06.560Z,15.21
2018-09-28T16:41:35.602Z,15.18
2018-09-28T16:44:05.016Z,15.16
2018-09-28T16:46:35.008Z,15.13
2018-09-28T16:49:04.627Z,15.09
2018-09-28T16:51:34.389Z,15.06
2018-09-28T16:54:03.595Z,15.03
2018-09-28T16:56:32.657Z,14.98
2018-09-28T16:59:01.702Z,14.95
2018-09-28T17:01:30.725Z,14.93
2018-09-28T17:03:59.793Z,14.89
2018-09-28T17:06:28.782Z,14.88
2018-09-28T17:08:57.852Z,14.85
2018-09-28T17:11:26.870Z,14.80
2018-09-28T17:13:56.321Z,14.76
2018-09-28T17:16:26.221Z,14.72
2018-09-28T17:18:55.417Z,14.67
2018-09-28T17:21:24.747Z,14.64
2018-09-28T17:23:53.856Z,14.60
2018-09-28T17:26:24.021Z,14.57
2018-09-28T17:28:53.127Z,14.52
2018-09-28T17:31:22.151Z,14.49
2018-09-28T17:33:51.189Z,14.45
2018-09-28T17:36:20.261Z,14.40
2018-09-28T17:38:49.303Z,14.37
2018-09-28T17:41:18.522Z,14.28
2018-09-28T17:43:47.572Z,14.19
2018-09-28T17:46:16.602Z,14.10
2018-09-28T17:48:45.766Z,14.02
2018-09-28T17:51:15.046Z,13.96
2018-09-28T17:53:44.258Z,13.88
2018-09-28T17:56:13.307Z,13.78
2018-09-28T17:58:47.780Z,13.70
2018-09-28T18:01:16.899Z,13.58
2018-09-28T18:03:46.095Z,13.48
2018-09-28T18:06:16.355Z,13.40
2018-09-28T18:08:45.491Z,13.33
2018-09-28T18:11:15.471Z,13.25
2018-09-28T18:13:44.525Z,13.15
2018-09-28T18:16:14.104Z,13.05
2018-09-28T18:18:43.940Z,12.93
2018-09-28T18:21:13.124Z,12.83
2018-09-28T18:23:42.174Z,12.71
2018-09-28T18:26:11.600Z,12.60
2018-09-28T18:28:40.694Z,12.48
2018-09-28T18:31:09.807Z,12.39
2018-09-28T18:33:38.927Z,12.30
2018-09-28T18:36:07.895Z,12.18
2018-09-28T18:38:37.093Z,12.07
2018-09-28T18:41:06.138Z,11.94
2018-09-28T18:43:35.197Z,11.84
2018-09-28T18:46:04.542Z,11.76
2018-09-28T18:48:33.645Z,11.71
2018-09-28T18:51:02.877Z,11.64
2018-09-28T18:53:32.941Z,11.54
2018-09-28T18:56:02.105Z,11.46
2018-09-28T18:58:31.275Z,11.39
2018-09-28T19:01:01.217Z,11.29
2018-09-28T19:03:30.317Z,11.22
2018-09-28T19:06:02.023Z,11.15
2018-09-28T19:08:33.729Z,11.09
2018-09-28T19:11:02.749Z,11.04
2018-09-28T19:13:32.022Z,10.98
2018-09-28T19:16:01.084Z,10.92
2018-09-28T19:18:32.992Z,10.88
2018-09-28T19:21:04.642Z,10.88
2018-09-28T19:23:33.654Z,10.90
2018-09-28T19:26:03.061Z,10.94
2018-09-28T19:28:32.520Z,10.97
2018-09-28T19:31:01.832Z,10.96
2018-09-28T19:33:32.965Z,10.90
2018-09-28T19:36:01.967Z,10.84
2018-09-28T19:38:31.242Z,10.80
2018-09-28T19:41:00.454Z,10.78
2018-09-28T19:43:29.521Z,10.79
2018-09-28T19:45:58.645Z,10.81
2018-09-28T19:48:28.108Z,10.83
2018-09-28T19:50:57.717Z,10.84
2018-09-28T19:53:26.861Z,10.86
2018-09-28T19:55:56.945Z,10.87
2018-09-28T19:58:26.088Z,10.87
2018-09-28T20:00:55.249Z,10.88
2018-09-28T20:03:25.297Z,10.86
2018-09-28T20:05:54.640Z,10.85
2018-09-28T20:08:23.781Z,10.85
2018-09-28T20:10:52.917Z,10.86
2018-09-28T20:13:22.053Z,10.89
2018-09-28T20:15:52.157Z,10.91
2018-09-28T20:18:21.290Z,10.90
2018-09-28T20:20:51.010Z,10.90
2018-09-28T20:23:21.060Z,10.88
2018-09-28T20:25:50.221Z,10.86
2018-09-28T20:28:19.331Z,10.85
2018-09-28T20:30:48.429Z,10.85
2018-09-28T20:33:17.555Z,10.85
2018-09-28T20:35:46.820Z,10.84
2018-09-28T20:38:15.847Z,10.82
2018-09-28T20:40:45.215Z,10.80
2018-09-28T20:43:14.371Z,10.79
2018-09-28T20:45:43.564Z,10.76
2018-09-28T20:48:12.603Z,10.73
2018-09-28T20:50:41.760Z,10.71
2018-09-28T20:53:11.012Z,10.67
2018-09-28T20:55:40.117Z,10.64
2018-09-28T20:58:09.248Z,10.60
2018-09-28T21:00:38.431Z,10.58
2018-09-28T21:03:07.341Z,10.54
2018-09-28T21:05:36.608Z,10.51
2018-09-28T21:08:05.661Z,10.47
2018-09-28T21:10:35.578Z,10.45
2018-09-28T21:13:04.729Z,10.41
2018-09-28T21:15:33.778Z,10.39
2018-09-28T21:18:02.943Z,10.38
2018-09-28T21:20:32.061Z,10.37
2018-09-28T21:23:01.563Z,10.37
2018-09-28T21:25:31.458Z,10.37
2018-09-28T21:28:00.573Z,10.37
2018-09-28T21:30:29.668Z,10.38
2018-09-28T21:32:58.814Z,10.38
2018-09-28T21:35:27.894Z,10.38
2018-09-28T21:37:56.953Z,10.39
2018-09-28T21:40:26.044Z,10.40
2018-09-28T21:42:55.587Z,10.38
2018-09-28T21:45:24.687Z,10.35
2018-09-28T21:47:53.797Z,10.33
2018-09-28T21:50:22.912Z,10.30
2018-09-28T21:52:52.324Z,10.26
2018-09-28T21:55:21.379Z,10.24
2018-09-28T21:57:50.565Z,10.21
2018-09-28T22:00:19.686Z,10.19
2018-09-28T22:02:48.674Z,10.18
2018-09-28T22:05:27.038Z,10.18
2018-09-28T22:07:56.195Z,10.16
2018-09-28T22:10:25.364Z,10.12
2018-09-28T22:12:54.452Z,10.11
2018-09-28T22:15:23.783Z,10.14
2018-09-28T22:17:53.287Z,10.17
2018-09-28T22:20:35.703Z,10.21
2018-09-28T22:26:10.916Z,10.27
2018-09-28T22:28:51.975Z,10.24
2018-09-28T22:31:21.113Z,10.17
2018-09-28T22:34:06.959Z,10.11
2018-09-28T22:36:39.396Z,10.04
2018-09-28T22:39:30.339Z,9.92
2018-09-28T22:42:13.324Z,9.77
2018-09-28T22:44:58.120Z,9.71
2018-09-28T22:47:43.331Z,9.70
2018-09-28T22:50:31.330Z,9.71
2018-09-28T22:53:18.805Z,9.74
2018-09-28T22:56:02.667Z,9.71
2018-09-28T22:58:32.020Z,9.68
2018-09-28T23:01:17.147Z,9.61
2018-09-28T23:04:00.926Z,9.50
2018-09-28T23:06:46.091Z,9.42
2018-09-28T23:09:15.257Z,9.35
2018-09-28T23:11:48.252Z,9.26
2018-09-28T23:14:17.899Z,9.22
2018-09-28T23:16:46.888Z,9.22
2018-09-28T23:19:15.851Z,9.26
2018-09-28T23:21:44.981Z,9.32
2018-09-28T23:24:14.016Z,9.38
2018-09-28T23:26:43.823Z,9.45
2018-09-28T23:29:12.799Z,9.50
2018-09-28T23:31:41.826Z,9.53
2018-09-28T23:34:10.909Z,9.53
2018-09-28T23:36:40.060Z,9.52
2018-09-28T23:39:10.168Z,9.50
2018-09-28T23:41:39.634Z,9.52
2018-09-28T23:44:09.265Z,9.56
2018-09-28T23:46:38.330Z,9.58
2018-09-28T23:49:07.749Z,9.62
2018-09-28T23:51:37.804Z,9.64
2018-09-28T23:54:06.837Z,9.63
2018-09-28T23:56:35.840Z,9.59
2018-09-28T23:59:04.915Z,9.55
